sensor_id;sensor_type;location;lat;lon;timestamp;P1;durP1;ratioP1;P2;durP2;ratioP2
75820;SDS011;64454;51.984;9.838;2023-05-07T00:00:51;21.35;;;15.10;;
75820;SDS011;64454;51.984;9.838;2023-05-07T00:03:18;24.50;;;15.80;;
75820;SDS011;64454;51.984;9.838;2023-05-07T00:05:46;20.58;;;15.95;;
75820;SDS011;64454;51.984;9.838;2023-05-07T00:08:13;23.90;;;16.98;;
75820;SDS011;64454;51.984;9.838;2023-05-07T00:10:40;20.30;;;15.98;;
75820;SDS011;64454;51.984;9.838;2023-05-07T00:13:07;20.80;;;15.65;;
75820;SDS011;64454;51.984;9.838;2023-05-07T00:15:34;20.52;;;15.32;;
75820;SDS011;64454;51.984;9.838;2023-05-07T00:18:02;20.33;;;15.90;;
75820;SDS011;64454;51.984;9.838;2023-05-07T00:20:29;19.85;;;15.35;;
75820;SDS011;64454;51.984;9.838;2023-05-07T00:22:56;20.83;;;16.15;;
75820;SDS011;64454;51.984;9.838;2023-05-07T00:25:23;22.40;;;16.45;;
75820;SDS011;64454;51.984;9.838;2023-05-07T00:27:50;22.55;;;15.52;;
75820;SDS011;64454;51.984;9.838;2023-05-07T00:30:16;20.42;;;15.57;;
75820;SDS011;64454;51.984;9.838;2023-05-07T00:32:44;23.27;;;16.58;;
75820;SDS011;64454;51.984;9.838;2023-05-07T00:35:12;24.85;;;16.75;;
75820;SDS011;64454;51.984;9.838;2023-05-07T00:37:38;21.75;;;16.48;;
75820;SDS011;64454;51.984;9.838;2023-05-07T00:40:06;23.92;;;17.05;;
75820;SDS011;64454;51.984;9.838;2023-05-07T00:42:34;22.38;;;17.50;;
75820;SDS011;64454;51.984;9.838;2023-05-07T00:45:01;21.48;;;15.95;;
75820;SDS011;64454;51.984;9.838;2023-05-07T00:47:29;21.95;;;16.73;;
75820;SDS011;64454;51.984;9.838;2023-05-07T00:49:56;27.23;;;17.63;;
75820;SDS011;64454;51.984;9.838;2023-05-07T00:52:25;24.23;;;18.53;;
75820;SDS011;64454;51.984;9.838;2023-05-07T00:54:53;24.42;;;17.40;;
75820;SDS011;64454;51.984;9.838;2023-05-07T00:57:21;24.23;;;18.00;;
75820;SDS011;64454;51.984;9.838;2023-05-07T00:59:50;23.83;;;17.80;;
75820;SDS011;64454;51.984;9.838;2023-05-07T01:02:18;23.60;;;18.10;;
75820;SDS011;64454;51.984;9.838;2023-05-07T01:04:44;24.97;;;19.20;;
75820;SDS011;64454;51.984;9.838;2023-05-07T01:07:11;27.38;;;19.40;;
75820;SDS011;64454;51.984;9.838;2023-05-07T01:09:40;27.42;;;18.80;;
75820;SDS011;64454;51.984;9.838;2023-05-07T01:12:07;24.97;;;18.03;;
75820;SDS011;64454;51.984;9.838;2023-05-07T01:14:35;27.98;;;18.42;;
75820;SDS011;64454;51.984;9.838;2023-05-07T01:17:02;26.48;;;19.25;;
75820;SDS011;64454;51.984;9.838;2023-05-07T01:19:29;24.55;;;18.15;;
75820;SDS011;64454;51.984;9.838;2023-05-07T01:21:57;26.35;;;18.88;;
75820;SDS011;64454;51.984;9.838;2023-05-07T01:24:34;26.75;;;19.27;;
75820;SDS011;64454;51.984;9.838;2023-05-07T01:27:03;25.77;;;18.67;;
75820;SDS011;64454;51.984;9.838;2023-05-07T01:29:30;29.65;;;19.00;;
75820;SDS011;64454;51.984;9.838;2023-05-07T01:31:57;24.58;;;18.73;;
75820;SDS011;64454;51.984;9.838;2023-05-07T01:34:27;25.00;;;18.67;;
75820;SDS011;64454;51.984;9.838;2023-05-07T01:36:58;25.83;;;18.90;;
75820;SDS011;64454;51.984;9.838;2023-05-07T01:39:27;27.63;;;19.17;;
75820;SDS011;64454;51.984;9.838;2023-05-07T01:41:57;26.17;;;19.88;;
75820;SDS011;64454;51.984;9.838;2023-05-07T01:44:25;27.83;;;19.65;;
75820;SDS011;64454;51.984;9.838;2023-05-07T01:46:53;27.60;;;19.38;;
75820;SDS011;64454;51.984;9.838;2023-05-07T01:49:20;27.85;;;18.88;;
75820;SDS011;64454;51.984;9.838;2023-05-07T01:51:47;27.70;;;19.08;;
75820;SDS011;64454;51.984;9.838;2023-05-07T01:54:16;30.75;;;20.98;;
75820;SDS011;64454;51.984;9.838;2023-05-07T01:56:45;27.75;;;19.98;;
75820;SDS011;64454;51.984;9.838;2023-05-07T01:59:15;25.67;;;18.70;;
75820;SDS011;64454;51.984;9.838;2023-05-07T02:01:44;29.42;;;19.65;;
75820;SDS011;64454;51.984;9.838;2023-05-07T02:04:10;28.20;;;19.42;;
75820;SDS011;64454;51.984;9.838;2023-05-07T02:06:37;28.42;;;19.35;;
75820;SDS011;64454;51.984;9.838;2023-05-07T02:09:04;27.15;;;19.48;;
75820;SDS011;64454;51.984;9.838;2023-05-07T02:11:33;27.63;;;19.98;;
75820;SDS011;64454;51.984;9.838;2023-05-07T02:14:00;27.45;;;19.30;;
75820;SDS011;64454;51.984;9.838;2023-05-07T02:16:28;27.25;;;18.45;;
75820;SDS011;64454;51.984;9.838;2023-05-07T02:18:55;28.90;;;19.10;;
75820;SDS011;64454;51.984;9.838;2023-05-07T02:21:23;26.30;;;18.02;;
75820;SDS011;64454;51.984;9.838;2023-05-07T02:23:51;24.77;;;17.25;;
75820;SDS011;64454;51.984;9.838;2023-05-07T02:26:17;24.10;;;18.02;;
75820;SDS011;64454;51.984;9.838;2023-05-07T02:28:44;23.85;;;18.02;;
75820;SDS011;64454;51.984;9.838;2023-05-07T02:31:12;28.00;;;19.48;;
75820;SDS011;64454;51.984;9.838;2023-05-07T02:33:40;24.83;;;17.35;;
75820;SDS011;64454;51.984;9.838;2023-05-07T02:36:07;27.17;;;18.42;;
75820;SDS011;64454;51.984;9.838;2023-05-07T02:38:35;26.88;;;17.80;;
75820;SDS011;64454;51.984;9.838;2023-05-07T02:41:03;24.38;;;17.83;;
75820;SDS011;64454;51.984;9.838;2023-05-07T02:43:29;27.13;;;17.98;;
75820;SDS011;64454;51.984;9.838;2023-05-07T02:46:00;25.02;;;17.80;;
75820;SDS011;64454;51.984;9.838;2023-05-07T02:48:28;25.25;;;17.30;;
75820;SDS011;64454;51.984;9.838;2023-05-07T02:50:56;24.27;;;16.77;;
75820;SDS011;64454;51.984;9.838;2023-05-07T02:53:24;23.65;;;17.38;;
75820;SDS011;64454;51.984;9.838;2023-05-07T02:55:51;26.08;;;17.27;;
75820;SDS011;64454;51.984;9.838;2023-05-07T02:58:19;24.35;;;17.05;;
75820;SDS011;64454;51.984;9.838;2023-05-07T03:00:49;24.77;;;17.60;;
75820;SDS011;64454;51.984;9.838;2023-05-07T03:03:16;21.65;;;15.52;;
75820;SDS011;64454;51.984;9.838;2023-05-07T03:05:43;23.52;;;16.00;;
75820;SDS011;64454;51.984;9.838;2023-05-07T03:08:11;22.23;;;15.90;;
75820;SDS011;64454;51.984;9.838;2023-05-07T03:10:38;21.03;;;15.23;;
75820;SDS011;64454;51.984;9.838;2023-05-07T03:13:05;21.95;;;16.08;;
75820;SDS011;64454;51.984;9.838;2023-05-07T03:15:32;21.27;;;15.93;;
75820;SDS011;64454;51.984;9.838;2023-05-07T03:17:59;22.88;;;15.88;;
75820;SDS011;64454;51.984;9.838;2023-05-07T03:20:25;21.95;;;15.85;;
75820;SDS011;64454;51.984;9.838;2023-05-07T03:22:52;22.25;;;15.90;;
75820;SDS011;64454;51.984;9.838;2023-05-07T03:25:20;20.42;;;15.43;;
75820;SDS011;64454;51.984;9.838;2023-05-07T03:27:47;23.03;;;15.73;;
75820;SDS011;64454;51.984;9.838;2023-05-07T03:30:14;21.50;;;15.65;;
75820;SDS011;64454;51.984;9.838;2023-05-07T03:32:41;21.85;;;15.00;;
75820;SDS011;64454;51.984;9.838;2023-05-07T03:35:08;23.88;;;15.00;;
75820;SDS011;64454;51.984;9.838;2023-05-07T03:37:35;20.20;;;14.50;;
75820;SDS011;64454;51.984;9.838;2023-05-07T03:40:02;18.05;;;14.18;;
75820;SDS011;64454;51.984;9.838;2023-05-07T03:42:30;20.35;;;13.85;;
75820;SDS011;64454;51.984;9.838;2023-05-07T03:44:57;19.38;;;13.93;;
75820;SDS011;64454;51.984;9.838;2023-05-07T03:47:24;19.30;;;13.88;;
75820;SDS011;64454;51.984;9.838;2023-05-07T03:49:53;19.73;;;13.90;;
75820;SDS011;64454;51.984;9.838;2023-05-07T03:52:19;15.43;;;12.50;;
75820;SDS011;64454;51.984;9.838;2023-05-07T03:54:50;16.70;;;12.23;;
75820;SDS011;64454;51.984;9.838;2023-05-07T03:57:18;19.27;;;13.38;;
75820;SDS011;64454;51.984;9.838;2023-05-07T03:59:47;18.05;;;13.13;;
75820;SDS011;64454;51.984;9.838;2023-05-07T04:02:13;16.67;;;12.32;;
75820;SDS011;64454;51.984;9.838;2023-05-07T04:04:40;17.45;;;12.65;;
75820;SDS011;64454;51.984;9.838;2023-05-07T04:07:07;17.65;;;12.93;;
75820;SDS011;64454;51.984;9.838;2023-05-07T04:09:34;16.23;;;12.07;;
75820;SDS011;64454;51.984;9.838;2023-05-07T04:12:01;16.77;;;12.55;;
75820;SDS011;64454;51.984;9.838;2023-05-07T04:14:29;15.68;;;11.35;;
75820;SDS011;64454;51.984;9.838;2023-05-07T04:16:58;18.60;;;12.15;;
75820;SDS011;64454;51.984;9.838;2023-05-07T04:19:25;18.15;;;12.40;;
75820;SDS011;64454;51.984;9.838;2023-05-07T04:21:52;16.70;;;11.50;;
75820;SDS011;64454;51.984;9.838;2023-05-07T04:24:19;20.92;;;12.75;;
75820;SDS011;64454;51.984;9.838;2023-05-07T04:26:46;16.38;;;11.43;;
75820;SDS011;64454;51.984;9.838;2023-05-07T04:29:13;17.40;;;12.82;;
75820;SDS011;64454;51.984;9.838;2023-05-07T04:31:42;15.63;;;12.32;;
75820;SDS011;64454;51.984;9.838;2023-05-07T04:34:11;17.48;;;11.95;;
75820;SDS011;64454;51.984;9.838;2023-05-07T04:36:39;17.50;;;11.90;;
75820;SDS011;64454;51.984;9.838;2023-05-07T04:39:06;17.05;;;11.75;;
75820;SDS011;64454;51.984;9.838;2023-05-07T04:41:33;16.45;;;11.35;;
75820;SDS011;64454;51.984;9.838;2023-05-07T04:44:02;16.75;;;10.95;;
75820;SDS011;64454;51.984;9.838;2023-05-07T04:46:30;18.87;;;11.90;;
75820;SDS011;64454;51.984;9.838;2023-05-07T04:48:57;16.35;;;11.65;;
75820;SDS011;64454;51.984;9.838;2023-05-07T04:51:25;16.15;;;11.45;;
75820;SDS011;64454;51.984;9.838;2023-05-07T04:53:53;16.10;;;11.55;;
75820;SDS011;64454;51.984;9.838;2023-05-07T04:56:19;16.85;;;12.23;;
75820;SDS011;64454;51.984;9.838;2023-05-07T04:58:46;15.82;;;11.45;;
75820;SDS011;64454;51.984;9.838;2023-05-07T05:01:13;15.55;;;11.63;;
75820;SDS011;64454;51.984;9.838;2023-05-07T05:03:40;13.50;;;11.20;;
75820;SDS011;64454;51.984;9.838;2023-05-07T05:06:06;17.67;;;12.07;;
75820;SDS011;64454;51.984;9.838;2023-05-07T05:08:34;15.20;;;11.50;;
75820;SDS011;64454;51.984;9.838;2023-05-07T05:11:01;17.30;;;11.75;;
75820;SDS011;64454;51.984;9.838;2023-05-07T05:13:28;16.90;;;12.35;;
75820;SDS011;64454;51.984;9.838;2023-05-07T05:15:55;15.88;;;11.20;;
75820;SDS011;64454;51.984;9.838;2023-05-07T05:18:22;16.30;;;11.45;;
75820;SDS011;64454;51.984;9.838;2023-05-07T05:20:49;16.00;;;11.57;;
75820;SDS011;64454;51.984;9.838;2023-05-07T05:23:17;16.00;;;11.63;;
75820;SDS011;64454;51.984;9.838;2023-05-07T05:25:45;14.93;;;11.03;;
75820;SDS011;64454;51.984;9.838;2023-05-07T05:28:12;19.38;;;12.07;;
75820;SDS011;64454;51.984;9.838;2023-05-07T05:30:38;16.80;;;12.23;;
75820;SDS011;64454;51.984;9.838;2023-05-07T05:33:05;17.27;;;12.20;;
75820;SDS011;64454;51.984;9.838;2023-05-07T05:35:32;16.80;;;11.25;;
75820;SDS011;64454;51.984;9.838;2023-05-07T05:38:00;15.77;;;11.87;;
75820;SDS011;64454;51.984;9.838;2023-05-07T05:40:27;15.85;;;11.30;;
75820;SDS011;64454;51.984;9.838;2023-05-07T05:42:55;14.52;;;11.05;;
75820;SDS011;64454;51.984;9.838;2023-05-07T05:45:22;14.80;;;11.07;;
75820;SDS011;64454;51.984;9.838;2023-05-07T05:47:48;14.68;;;10.65;;
75820;SDS011;64454;51.984;9.838;2023-05-07T05:50:15;16.30;;;12.40;;
75820;SDS011;64454;51.984;9.838;2023-05-07T05:52:42;16.42;;;11.40;;
75820;SDS011;64454;51.984;9.838;2023-05-07T05:55:09;14.40;;;10.88;;
75820;SDS011;64454;51.984;9.838;2023-05-07T05:57:36;16.23;;;11.70;;
75820;SDS011;64454;51.984;9.838;2023-05-07T06:00:04;15.20;;;11.02;;
75820;SDS011;64454;51.984;9.838;2023-05-07T06:02:33;15.43;;;11.30;;
75820;SDS011;64454;51.984;9.838;2023-05-07T06:04:59;14.57;;;11.45;;
75820;SDS011;64454;51.984;9.838;2023-05-07T06:07:26;16.15;;;11.38;;
75820;SDS011;64454;51.984;9.838;2023-05-07T06:09:53;16.20;;;11.48;;
75820;SDS011;64454;51.984;9.838;2023-05-07T06:12:20;15.55;;;11.52;;
75820;SDS011;64454;51.984;9.838;2023-05-07T06:14:47;16.88;;;10.73;;
75820;SDS011;64454;51.984;9.838;2023-05-07T06:17:15;18.20;;;10.82;;
75820;SDS011;64454;51.984;9.838;2023-05-07T06:19:42;14.43;;;10.65;;
75820;SDS011;64454;51.984;9.838;2023-05-07T06:22:08;15.45;;;12.05;;
75820;SDS011;64454;51.984;9.838;2023-05-07T06:24:35;14.93;;;11.40;;
75820;SDS011;64454;51.984;9.838;2023-05-07T06:27:02;15.67;;;10.40;;
75820;SDS011;64454;51.984;9.838;2023-05-07T06:29:29;16.10;;;10.80;;
75820;SDS011;64454;51.984;9.838;2023-05-07T06:32:02;14.18;;;10.00;;
75820;SDS011;64454;51.984;9.838;2023-05-07T06:34:34;15.27;;;11.40;;
75820;SDS011;64454;51.984;9.838;2023-05-07T06:37:01;15.73;;;10.70;;
75820;SDS011;64454;51.984;9.838;2023-05-07T06:39:28;19.08;;;12.45;;
75820;SDS011;64454;51.984;9.838;2023-05-07T06:41:55;15.93;;;11.32;;
75820;SDS011;64454;51.984;9.838;2023-05-07T06:44:22;18.73;;;11.77;;
75820;SDS011;64454;51.984;9.838;2023-05-07T06:46:49;15.70;;;11.52;;
75820;SDS011;64454;51.984;9.838;2023-05-07T06:49:16;14.52;;;10.70;;
75820;SDS011;64454;51.984;9.838;2023-05-07T06:51:46;18.30;;;11.18;;
75820;SDS011;64454;51.984;9.838;2023-05-07T06:54:13;16.85;;;11.48;;
75820;SDS011;64454;51.984;9.838;2023-05-07T06:56:41;15.20;;;10.48;;
75820;SDS011;64454;51.984;9.838;2023-05-07T06:59:08;16.58;;;11.20;;
75820;SDS011;64454;51.984;9.838;2023-05-07T07:01:35;16.83;;;11.30;;
75820;SDS011;64454;51.984;9.838;2023-05-07T07:04:02;16.23;;;11.38;;
75820;SDS011;64454;51.984;9.838;2023-05-07T07:06:29;16.87;;;12.53;;
75820;SDS011;64454;51.984;9.838;2023-05-07T07:08:58;15.52;;;11.05;;
75820;SDS011;64454;51.984;9.838;2023-05-07T07:11:25;17.10;;;11.83;;
75820;SDS011;64454;51.984;9.838;2023-05-07T07:13:52;15.00;;;11.10;;
75820;SDS011;64454;51.984;9.838;2023-05-07T07:16:19;17.02;;;10.98;;
75820;SDS011;64454;51.984;9.838;2023-05-07T07:18:46;15.27;;;10.80;;
75820;SDS011;64454;51.984;9.838;2023-05-07T07:21:13;16.33;;;10.50;;
75820;SDS011;64454;51.984;9.838;2023-05-07T07:23:40;13.87;;;10.37;;
75820;SDS011;64454;51.984;9.838;2023-05-07T07:26:08;14.48;;;10.77;;
75820;SDS011;64454;51.984;9.838;2023-05-07T07:28:34;14.00;;;10.35;;
75820;SDS011;64454;51.984;9.838;2023-05-07T07:31:08;14.70;;;10.38;;
75820;SDS011;64454;51.984;9.838;2023-05-07T07:33:35;16.13;;;11.23;;
75820;SDS011;64454;51.984;9.838;2023-05-07T07:36:01;15.80;;;11.10;;
75820;SDS011;64454;51.984;9.838;2023-05-07T07:38:28;15.65;;;11.23;;
75820;SDS011;64454;51.984;9.838;2023-05-07T07:40:55;16.23;;;10.20;;
75820;SDS011;64454;51.984;9.838;2023-05-07T07:43:23;14.27;;;10.25;;
75820;SDS011;64454;51.984;9.838;2023-05-07T07:45:50;16.15;;;11.18;;
75820;SDS011;64454;51.984;9.838;2023-05-07T07:48:17;15.13;;;9.95;;
75820;SDS011;64454;51.984;9.838;2023-05-07T07:50:43;13.10;;;10.60;;
75820;SDS011;64454;51.984;9.838;2023-05-07T07:53:10;18.20;;;11.75;;
75820;SDS011;64454;51.984;9.838;2023-05-07T07:55:38;14.60;;;9.40;;
75820;SDS011;64454;51.984;9.838;2023-05-07T07:58:05;14.20;;;10.03;;
75820;SDS011;64454;51.984;9.838;2023-05-07T08:00:33;15.33;;;10.30;;
75820;SDS011;64454;51.984;9.838;2023-05-07T08:03:00;14.25;;;9.82;;
75820;SDS011;64454;51.984;9.838;2023-05-07T08:05:28;14.23;;;10.60;;
75820;SDS011;64454;51.984;9.838;2023-05-07T08:07:55;14.30;;;9.70;;
75820;SDS011;64454;51.984;9.838;2023-05-07T08:10:22;12.57;;;9.80;;
75820;SDS011;64454;51.984;9.838;2023-05-07T08:12:48;12.13;;;9.27;;
75820;SDS011;64454;51.984;9.838;2023-05-07T08:15:16;11.65;;;9.10;;
75820;SDS011;64454;51.984;9.838;2023-05-07T08:17:45;12.80;;;9.23;;
75820;SDS011;64454;51.984;9.838;2023-05-07T08:20:11;14.32;;;9.77;;
75820;SDS011;64454;51.984;9.838;2023-05-07T08:22:38;13.10;;;9.73;;
75820;SDS011;64454;51.984;9.838;2023-05-07T08:25:05;12.23;;;9.43;;
75820;SDS011;64454;51.984;9.838;2023-05-07T08:27:32;12.32;;;8.98;;
75820;SDS011;64454;51.984;9.838;2023-05-07T08:29:59;10.93;;;8.60;;
75820;SDS011;64454;51.984;9.838;2023-05-07T08:32:26;11.98;;;9.18;;
75820;SDS011;64454;51.984;9.838;2023-05-07T08:34:54;13.30;;;9.70;;
75820;SDS011;64454;51.984;9.838;2023-05-07T08:37:21;12.93;;;9.38;;
75820;SDS011;64454;51.984;9.838;2023-05-07T08:39:47;13.82;;;9.77;;
75820;SDS011;64454;51.984;9.838;2023-05-07T08:42:14;11.77;;;9.15;;
75820;SDS011;64454;51.984;9.838;2023-05-07T08:44:44;13.20;;;9.45;;
75820;SDS011;64454;51.984;9.838;2023-05-07T08:47:12;12.15;;;8.43;;
75820;SDS011;64454;51.984;9.838;2023-05-07T08:49:39;14.13;;;9.55;;
75820;SDS011;64454;51.984;9.838;2023-05-07T08:52:07;11.80;;;8.70;;
75820;SDS011;64454;51.984;9.838;2023-05-07T08:54:34;11.70;;;8.90;;
75820;SDS011;64454;51.984;9.838;2023-05-07T08:57:03;12.57;;;9.33;;
75820;SDS011;64454;51.984;9.838;2023-05-07T08:59:30;11.32;;;8.40;;
75820;SDS011;64454;51.984;9.838;2023-05-07T09:01:57;11.57;;;8.57;;
75820;SDS011;64454;51.984;9.838;2023-05-07T09:04:24;13.10;;;9.50;;
75820;SDS011;64454;51.984;9.838;2023-05-07T09:06:51;10.90;;;8.30;;
75820;SDS011;64454;51.984;9.838;2023-05-07T09:09:21;11.60;;;8.90;;
75820;SDS011;64454;51.984;9.838;2023-05-07T09:11:48;12.13;;;9.18;;
75820;SDS011;64454;51.984;9.838;2023-05-07T09:14:21;11.93;;;8.80;;
75820;SDS011;64454;51.984;9.838;2023-05-07T09:16:48;11.60;;;8.50;;
75820;SDS011;64454;51.984;9.838;2023-05-07T09:19:15;11.18;;;8.18;;
75820;SDS011;64454;51.984;9.838;2023-05-07T09:21:48;10.70;;;7.95;;
75820;SDS011;64454;51.984;9.838;2023-05-07T09:24:16;10.80;;;8.73;;
75820;SDS011;64454;51.984;9.838;2023-05-07T09:26:46;10.80;;;8.32;;
75820;SDS011;64454;51.984;9.838;2023-05-07T09:29:15;11.75;;;8.90;;
75820;SDS011;64454;51.984;9.838;2023-05-07T09:31:44;11.37;;;8.30;;
75820;SDS011;64454;51.984;9.838;2023-05-07T09:34:11;11.55;;;8.73;;
75820;SDS011;64454;51.984;9.838;2023-05-07T09:36:38;13.35;;;8.95;;
75820;SDS011;64454;51.984;9.838;2023-05-07T09:39:05;12.82;;;9.40;;
75820;SDS011;64454;51.984;9.838;2023-05-07T09:41:32;10.05;;;8.48;;
75820;SDS011;64454;51.984;9.838;2023-05-07T09:44:10;11.93;;;8.98;;
75820;SDS011;64454;51.984;9.838;2023-05-07T09:46:38;11.57;;;9.27;;
75820;SDS011;64454;51.984;9.838;2023-05-07T09:49:07;10.50;;;8.35;;
75820;SDS011;64454;51.984;9.838;2023-05-07T09:51:43;11.93;;;9.10;;
75820;SDS011;64454;51.984;9.838;2023-05-07T09:54:15;12.03;;;9.33;;
75820;SDS011;64454;51.984;9.838;2023-05-07T09:56:45;10.77;;;8.55;;
75820;SDS011;64454;51.984;9.838;2023-05-07T09:59:16;11.27;;;8.73;;
75820;SDS011;64454;51.984;9.838;2023-05-07T10:01:46;12.70;;;9.73;;
75820;SDS011;64454;51.984;9.838;2023-05-07T10:04:15;12.45;;;9.05;;
75820;SDS011;64454;51.984;9.838;2023-05-07T10:06:46;12.63;;;9.50;;
75820;SDS011;64454;51.984;9.838;2023-05-07T10:09:13;11.90;;;9.27;;
75820;SDS011;64454;51.984;9.838;2023-05-07T10:11:43;10.82;;;8.90;;
75820;SDS011;64454;51.984;9.838;2023-05-07T10:14:11;11.60;;;9.57;;
75820;SDS011;64454;51.984;9.838;2023-05-07T10:16:43;11.53;;;9.10;;
75820;SDS011;64454;51.984;9.838;2023-05-07T10:19:10;10.90;;;8.55;;
75820;SDS011;64454;51.984;9.838;2023-05-07T10:21:39;11.07;;;9.07;;
75820;SDS011;64454;51.984;9.838;2023-05-07T10:24:16;9.63;;;8.60;;
75820;SDS011;64454;51.984;9.838;2023-05-07T10:26:48;10.45;;;8.63;;
75820;SDS011;64454;51.984;9.838;2023-05-07T10:29:21;10.60;;;7.97;;
75820;SDS011;64454;51.984;9.838;2023-05-07T10:35:03;10.65;;;8.68;;
75820;SDS011;64454;51.984;9.838;2023-05-07T10:37:40;11.68;;;8.50;;
75820;SDS011;64454;51.984;9.838;2023-05-07T10:40:08;10.63;;;9.00;;
75820;SDS011;64454;51.984;9.838;2023-05-07T10:42:37;12.07;;;8.88;;
75820;SDS011;64454;51.984;9.838;2023-05-07T10:45:12;10.68;;;8.05;;
75820;SDS011;64454;51.984;9.838;2023-05-07T10:50:34;9.48;;;8.05;;
75820;SDS011;64454;51.984;9.838;2023-05-07T10:58:55;9.90;;;8.35;;
75820;SDS011;64454;51.984;9.838;2023-05-07T11:02:07;10.73;;;8.50;;
75820;SDS011;64454;51.984;9.838;2023-05-07T11:04:36;9.00;;;8.02;;
75820;SDS011;64454;51.984;9.838;2023-05-07T11:09:59;10.05;;;8.50;;
75820;SDS011;64454;51.984;9.838;2023-05-07T11:18:16;10.30;;;8.60;;
75820;SDS011;64454;51.984;9.838;2023-05-07T11:20:53;10.77;;;8.50;;
75820;SDS011;64454;51.984;9.838;2023-05-07T11:26:25;10.65;;;9.40;;
75820;SDS011;64454;51.984;9.838;2023-05-07T11:28:54;9.90;;;8.80;;
75820;SDS011;64454;51.984;9.838;2023-05-07T11:31:22;10.20;;;8.95;;
75820;SDS011;64454;51.984;9.838;2023-05-07T11:33:53;9.77;;;8.63;;
75820;SDS011;64454;51.984;9.838;2023-05-07T11:36:21;10.52;;;9.07;;
75820;SDS011;64454;51.984;9.838;2023-05-07T11:38:50;10.55;;;9.18;;
75820;SDS011;64454;51.984;9.838;2023-05-07T11:41:16;12.00;;;10.20;;
75820;SDS011;64454;51.984;9.838;2023-05-07T11:43:55;10.15;;;8.55;;
75820;SDS011;64454;51.984;9.838;2023-05-07T11:46:24;10.85;;;8.30;;
75820;SDS011;64454;51.984;9.838;2023-05-07T11:48:51;10.35;;;8.98;;
75820;SDS011;64454;51.984;9.838;2023-05-07T11:51:19;9.50;;;8.40;;
75820;SDS011;64454;51.984;9.838;2023-05-07T11:53:48;10.67;;;9.53;;
75820;SDS011;64454;51.984;9.838;2023-05-07T11:56:16;10.75;;;9.00;;
75820;SDS011;64454;51.984;9.838;2023-05-07T11:58:45;10.20;;;9.10;;
75820;SDS011;64454;51.984;9.838;2023-05-07T12:01:14;9.63;;;8.63;;
75820;SDS011;64454;51.984;9.838;2023-05-07T12:03:43;11.20;;;9.10;;
75820;SDS011;64454;51.984;9.838;2023-05-07T12:06:12;10.57;;;8.70;;
75820;SDS011;64454;51.984;9.838;2023-05-07T12:08:43;9.27;;;7.77;;
75820;SDS011;64454;51.984;9.838;2023-05-07T12:11:13;11.32;;;9.13;;
75820;SDS011;64454;51.984;9.838;2023-05-07T12:13:43;10.10;;;8.32;;
75820;SDS011;64454;51.984;9.838;2023-05-07T12:16:10;12.93;;;9.00;;
75820;SDS011;64454;51.984;9.838;2023-05-07T12:18:38;10.55;;;9.18;;
75820;SDS011;64454;51.984;9.838;2023-05-07T12:21:06;10.10;;;9.00;;
75820;SDS011;64454;51.984;9.838;2023-05-07T12:23:34;9.53;;;8.50;;
75820;SDS011;64454;51.984;9.838;2023-05-07T12:26:04;9.32;;;8.30;;
75820;SDS011;64454;51.984;9.838;2023-05-07T12:28:31;10.15;;;8.55;;
75820;SDS011;64454;51.984;9.838;2023-05-07T12:31:03;8.70;;;7.80;;
75820;SDS011;64454;51.984;9.838;2023-05-07T12:33:30;11.75;;;8.35;;
75820;SDS011;64454;51.984;9.838;2023-05-07T12:35:58;9.68;;;8.20;;
75820;SDS011;64454;51.984;9.838;2023-05-07T12:38:33;9.20;;;8.20;;
75820;SDS011;64454;51.984;9.838;2023-05-07T12:41:03;9.52;;;8.63;;
75820;SDS011;64454;51.984;9.838;2023-05-07T12:43:32;10.35;;;8.63;;
75820;SDS011;64454;51.984;9.838;2023-05-07T12:45:59;9.90;;;7.90;;
75820;SDS011;64454;51.984;9.838;2023-05-07T12:48:29;8.80;;;7.90;;
75820;SDS011;64454;51.984;9.838;2023-05-07T12:50:57;8.55;;;7.50;;
75820;SDS011;64454;51.984;9.838;2023-05-07T12:53:26;9.13;;;7.85;;
75820;SDS011;64454;51.984;9.838;2023-05-07T12:55:54;13.50;;;8.48;;
75820;SDS011;64454;51.984;9.838;2023-05-07T12:58:25;8.68;;;7.78;;
75820;SDS011;64454;51.984;9.838;2023-05-07T13:00:54;8.60;;;7.80;;
75820;SDS011;64454;51.984;9.838;2023-05-07T13:03:24;9.20;;;7.97;;
75820;SDS011;64454;51.984;9.838;2023-05-07T13:05:54;8.13;;;7.30;;
75820;SDS011;64454;51.984;9.838;2023-05-07T13:08:24;8.45;;;7.43;;
75820;SDS011;64454;51.984;9.838;2023-05-07T13:10:57;7.72;;;6.93;;
75820;SDS011;64454;51.984;9.838;2023-05-07T13:13:29;7.43;;;6.63;;
75820;SDS011;64454;51.984;9.838;2023-05-07T13:15:56;7.60;;;6.80;;
75820;SDS011;64454;51.984;9.838;2023-05-07T13:18:24;7.83;;;7.03;;
75820;SDS011;64454;51.984;9.838;2023-05-07T13:20:52;7.60;;;6.80;;
75820;SDS011;64454;51.984;9.838;2023-05-07T13:23:19;7.97;;;7.18;;
75820;SDS011;64454;51.984;9.838;2023-05-07T13:25:45;7.82;;;7.05;;
75820;SDS011;64454;51.984;9.838;2023-05-07T13:28:12;7.90;;;7.10;;
75820;SDS011;64454;51.984;9.838;2023-05-07T13:30:40;8.30;;;7.50;;
75820;SDS011;64454;51.984;9.838;2023-05-07T13:33:08;8.48;;;6.95;;
75820;SDS011;64454;51.984;9.838;2023-05-07T13:35:35;9.07;;;6.97;;
75820;SDS011;64454;51.984;9.838;2023-05-07T13:38:02;7.30;;;6.60;;
75820;SDS011;64454;51.984;9.838;2023-05-07T13:40:29;8.33;;;7.53;;
75820;SDS011;64454;51.984;9.838;2023-05-07T13:42:56;8.40;;;7.50;;
75820;SDS011;64454;51.984;9.838;2023-05-07T13:45:25;8.95;;;7.75;;
75820;SDS011;64454;51.984;9.838;2023-05-07T13:47:56;8.13;;;7.32;;
75820;SDS011;64454;51.984;9.838;2023-05-07T13:50:23;7.88;;;7.07;;
75820;SDS011;64454;51.984;9.838;2023-05-07T13:52:51;8.77;;;7.97;;
75820;SDS011;64454;51.984;9.838;2023-05-07T13:55:19;8.25;;;7.30;;
75820;SDS011;64454;51.984;9.838;2023-05-07T13:57:51;9.52;;;8.52;;
75820;SDS011;64454;51.984;9.838;2023-05-07T14:00:22;8.77;;;7.88;;
75820;SDS011;64454;51.984;9.838;2023-05-07T14:02:49;8.95;;;8.15;;
75820;SDS011;64454;51.984;9.838;2023-05-07T14:05:18;9.32;;;8.43;;
75820;SDS011;64454;51.984;9.838;2023-05-07T14:07:45;8.70;;;7.90;;
75820;SDS011;64454;51.984;9.838;2023-05-07T14:10:13;9.40;;;7.60;;
75820;SDS011;64454;51.984;9.838;2023-05-07T14:12:40;9.00;;;8.20;;
75820;SDS011;64454;51.984;9.838;2023-05-07T14:15:07;8.70;;;7.80;;
75820;SDS011;64454;51.984;9.838;2023-05-07T14:17:35;8.55;;;7.75;;
75820;SDS011;64454;51.984;9.838;2023-05-07T14:20:02;8.48;;;7.68;;
75820;SDS011;64454;51.984;9.838;2023-05-07T14:22:33;10.57;;;8.40;;
75820;SDS011;64454;51.984;9.838;2023-05-07T14:25:00;8.50;;;7.80;;
75820;SDS011;64454;51.984;9.838;2023-05-07T14:27:26;9.40;;;8.00;;
75820;SDS011;64454;51.984;9.838;2023-05-07T14:29:53;8.82;;;7.82;;
75820;SDS011;64454;51.984;9.838;2023-05-07T14:32:21;8.85;;;8.05;;
75820;SDS011;64454;51.984;9.838;2023-05-07T14:34:48;8.45;;;7.55;;
75820;SDS011;64454;51.984;9.838;2023-05-07T14:37:15;9.80;;;8.90;;
75820;SDS011;64454;51.984;9.838;2023-05-07T14:39:46;9.07;;;8.18;;
75820;SDS011;64454;51.984;9.838;2023-05-07T14:42:13;8.27;;;7.37;;
75820;SDS011;64454;51.984;9.838;2023-05-07T14:44:39;8.95;;;8.05;;
75820;SDS011;64454;51.984;9.838;2023-05-07T14:47:07;9.20;;;8.30;;
75820;SDS011;64454;51.984;9.838;2023-05-07T14:49:34;9.35;;;8.45;;
75820;SDS011;64454;51.984;9.838;2023-05-07T14:52:01;10.20;;;8.90;;
75820;SDS011;64454;51.984;9.838;2023-05-07T14:54:27;9.30;;;8.40;;
75820;SDS011;64454;51.984;9.838;2023-05-07T14:56:56;9.20;;;8.40;;
75820;SDS011;64454;51.984;9.838;2023-05-07T14:59:23;9.65;;;8.75;;